createdAt,value
2019-05-03T00:05:13.898Z,7.77
2019-05-03T00:07:31.745Z,6.90
2019-05-03T00:13:36.131Z,7.40
2019-05-03T00:20:15.102Z,7.20
2019-05-03T00:23:04.058Z,9.80
2019-05-03T00:26:24.365Z,7.20
2019-05-03T00:38:49.119Z,6.93
2019-05-03T00:41:12.062Z,7.57
2019-05-03T00:43:54.719Z,9.50
2019-05-03T00:46:43.261Z,8.67
2019-05-03T00:49:17.703Z,8.33
2019-05-03T00:51:28.185Z,7.63
2019-05-03T00:53:47.499Z,8.40
2019-05-03T00:55:57.738Z,8.13
2019-05-03T00:58:03.738Z,8.97
2019-05-03T01:00:13.580Z,8.23
2019-05-03T01:02:33.787Z,8.20
2019-05-03T01:04:42.670Z,8.03
2019-05-03T01:06:50.040Z,7.97
2019-05-03T01:09:02.539Z,8.20
2019-05-03T01:11:22.263Z,8.30
2019-05-03T01:13:40.218Z,8.40
2019-05-03T01:16:14.438Z,8.40
2019-05-03T01:18:35.651Z,8.27
2019-05-03T01:20:40.078Z,9.13
2019-05-03T01:22:47.372Z,7.13
2019-05-03T01:24:56.693Z,9.47
2019-05-03T01:27:05.800Z,9.30
2019-05-03T01:29:16.346Z,7.97
2019-05-03T01:31:39.489Z,9.60
2019-05-03T01:33:42.497Z,9.30
2019-05-03T01:35:51.905Z,9.10
2019-05-03T01:38:02.051Z,9.20
2019-05-03T01:40:25.515Z,9.57
2019-05-03T01:42:51.759Z,8.60
2019-05-03T01:45:17.917Z,9.53
2019-05-03T01:47:56.344Z,8.60
2019-05-03T01:50:35.106Z,7.60
2019-05-03T01:52:56.991Z,9.53
2019-05-03T01:55:05.964Z,9.73
2019-05-03T01:57:32.491Z,8.93
2019-05-03T01:59:44.088Z,8.87
2019-05-03T02:02:07.512Z,8.53
2019-05-03T02:04:39.037Z,9.10
2019-05-03T02:06:51.928Z,8.20
2019-05-03T02:09:02.089Z,8.23
2019-05-03T02:11:11.572Z,9.07
2019-05-03T02:13:15.505Z,9.50
2019-05-03T02:15:33.625Z,7.13
2019-05-03T02:17:37.927Z,8.37
2019-05-03T02:19:46.727Z,7.80
2019-05-03T02:21:59.855Z,8.30
2019-05-03T02:24:07.252Z,8.00
2019-05-03T02:26:14.578Z,7.97
2019-05-03T02:28:22.072Z,7.63
2019-05-03T02:30:36.415Z,8.23
2019-05-03T02:32:46.819Z,7.30
2019-05-03T02:34:56.755Z,7.63
2019-05-03T02:37:07.534Z,8.10
2019-05-03T02:39:18.975Z,8.57
2019-05-03T02:41:26.057Z,8.90
2019-05-03T02:43:37.911Z,7.80
2019-05-03T02:46:00.797Z,6.87
2019-05-03T02:48:29.206Z,8.13
2019-05-03T02:50:37.471Z,8.03
2019-05-03T02:52:41.835Z,9.40
2019-05-03T02:54:48.525Z,7.80
2019-05-03T02:57:06.436Z,8.10
2019-05-03T02:59:15.726Z,8.53
2019-05-03T03:01:28.082Z,9.07
2019-05-03T03:03:57.520Z,8.07
2019-05-03T03:06:46.590Z,8.60
2019-05-03T03:08:38.886Z,9.23
2019-05-03T03:10:48.607Z,8.60
2019-05-03T03:13:13.097Z,9.30
2019-05-03T03:15:19.784Z,8.90
2019-05-03T03:17:27.013Z,8.50
2019-05-03T03:19:36.970Z,9.40
2019-05-03T03:21:47.682Z,10.00
2019-05-03T03:24:06.808Z,8.43
2019-05-03T03:26:36.274Z,9.20
2019-05-03T03:28:39.038Z,7.90
2019-05-03T03:31:37.839Z,8.43
2019-05-03T03:33:48.168Z,8.00
2019-05-03T03:36:29.445Z,8.30
2019-05-03T03:38:15.439Z,7.23
2019-05-03T03:40:19.884Z,7.40
2019-05-03T03:42:52.330Z,6.97
2019-05-03T03:45:25.360Z,6.63
2019-05-03T03:47:46.612Z,6.83
2019-05-03T03:50:07.883Z,6.80
2019-05-03T03:52:20.494Z,6.83
2019-05-03T03:54:45.730Z,5.80
2019-05-03T03:57:07.907Z,6.23
2019-05-03T03:59:17.749Z,4.83
2019-05-03T04:01:37.279Z,4.80
2019-05-03T04:03:45.965Z,5.17
2019-05-03T04:05:55.896Z,4.67
2019-05-03T04:08:25.044Z,4.30
2019-05-03T04:10:32.060Z,4.77
2019-05-03T04:12:45.268Z,4.17
2019-05-03T04:14:59.058Z,5.30
2019-05-03T04:17:22.548Z,5.07
2019-05-03T04:19:32.221Z,5.93
2019-05-03T04:21:51.103Z,5.03
2019-05-03T04:24:02.613Z,6.10
2019-05-03T04:27:24.417Z,6.93
2019-05-03T04:30:05.913Z,6.60
2019-05-03T04:32:42.130Z,5.77
2019-05-03T04:35:01.256Z,6.30
2019-05-03T04:37:28.180Z,5.63
2019-05-03T04:40:20.162Z,6.00
2019-05-03T04:42:27.328Z,4.80
2019-05-03T04:48:16.059Z,5.40
2019-05-03T04:50:36.628Z,4.27
2019-05-03T04:53:22.271Z,3.40
2019-05-03T04:55:36.868Z,2.77
2019-05-03T04:57:56.227Z,3.57
2019-05-03T05:00:11.448Z,2.80
2019-05-03T05:02:40.789Z,2.57
2019-05-03T05:04:55.636Z,2.80
2019-05-03T05:07:10.613Z,4.10
2019-05-03T05:09:25.882Z,3.13
2019-05-03T05:11:35.072Z,3.20
2019-05-03T05:13:42.359Z,3.40
2019-05-03T05:15:49.796Z,2.53
2019-05-03T05:18:05.804Z,2.10
2019-05-03T05:20:27.168Z,2.40
2019-05-03T05:22:49.503Z,3.43
2019-05-03T05:24:55.188Z,3.43
2019-05-03T05:27:05.959Z,2.13
2019-05-03T05:29:11.525Z,2.30
2019-05-03T05:31:15.438Z,3.00
2019-05-03T05:33:22.210Z,2.17
2019-05-03T05:35:28.496Z,2.63
2019-05-03T05:37:31.844Z,2.00
2019-05-03T05:39:55.044Z,1.83
2019-05-03T05:42:00.986Z,2.20
2019-05-03T05:44:05.437Z,2.03
2019-05-03T05:46:09.700Z,2.30
2019-05-03T05:48:29.643Z,2.43
2019-05-03T05:50:35.861Z,1.97
2019-05-03T05:52:39.779Z,2.57
2019-05-03T05:54:46.441Z,1.80
2019-05-03T05:57:05.419Z,2.37
2019-05-03T05:59:31.174Z,1.40
2019-05-03T06:01:40.740Z,1.90
2019-05-03T06:03:44.908Z,2.33
2019-05-03T06:05:49.261Z,2.80
2019-05-03T06:08:01.736Z,2.47
2019-05-03T06:10:27.811Z,2.00
2019-05-03T06:12:51.759Z,2.03
2019-05-03T06:14:59.568Z,1.80
2019-05-03T06:17:20.604Z,1.60
2019-05-03T06:19:40.411Z,1.73
2019-05-03T06:21:50.814Z,2.10
2019-05-03T06:24:05.016Z,2.03
2019-05-03T06:26:34.640Z,2.57
2019-05-03T06:28:49.955Z,3.10
2019-05-03T06:31:25.259Z,2.00
2019-05-03T06:33:29.634Z,2.70
2019-05-03T06:35:34.571Z,1.50
2019-05-03T06:37:43.021Z,2.50
2019-05-03T06:40:00.958Z,2.03
2019-05-03T06:43:02.953Z,2.83
2019-05-03T06:45:05.860Z,1.83
2019-05-03T06:51:24.871Z,2.17
2019-05-03T06:53:47.547Z,2.40
2019-05-03T06:56:45.009Z,3.20
2019-05-03T06:59:47.109Z,2.00
2019-05-03T07:20:00.109Z,1.20
2019-05-03T07:45:00.739Z,2.63
2019-05-03T07:54:34.799Z,2.47
2019-05-03T08:00:15.503Z,1.57
2019-05-03T08:06:24.855Z,1.30
2019-05-03T08:09:36.544Z,2.30
2019-05-03T08:13:12.311Z,1.47
2019-05-03T08:14:18.307Z,1.50
2019-05-03T08:16:47.957Z,1.40
2019-05-03T08:19:18.137Z,1.93
2019-05-03T08:21:38.025Z,1.60
2019-05-03T08:24:04.578Z,1.57
2019-05-03T08:26:38.038Z,1.90
2019-05-03T08:29:16.144Z,2.13
2019-05-03T08:31:48.350Z,2.00
2019-05-03T08:34:30.733Z,1.20
2019-05-03T08:39:44.589Z,1.40
2019-05-03T08:42:07.193Z,1.80
2019-05-03T08:44:29.351Z,2.20
2019-05-03T08:47:05.313Z,1.73
2019-05-03T08:49:15.744Z,1.63
2019-05-03T08:51:47.209Z,1.60
2019-05-03T08:54:01.552Z,2.17
2019-05-03T08:56:37.386Z,2.17
2019-05-03T08:59:11.330Z,1.77
2019-05-03T09:05:45.310Z,1.40
2019-05-03T09:36:35.254Z,1.40
2019-05-03T09:38:56.474Z,1.20
2019-05-03T09:41:35.102Z,1.90
2019-05-03T09:43:57.817Z,1.70
2019-05-03T09:46:35.474Z,1.17
2019-05-03T09:54:17.334Z,2.60
2019-05-03T09:56:55.028Z,3.20
2019-05-03T09:59:55.697Z,1.70
2019-05-03T10:02:24.610Z,1.50
2019-05-03T10:04:49.049Z,1.33
2019-05-03T10:06:57.982Z,2.10
2019-05-03T10:09:46.893Z,1.87
2019-05-03T10:12:16.162Z,2.10
2019-05-03T10:14:48.011Z,2.00
2019-05-03T10:17:59.093Z,1.30
2019-05-03T10:21:09.390Z,1.40
2019-05-03T10:24:02.561Z,1.70
2019-05-03T10:32:36.597Z,1.47
2019-05-03T10:35:24.608Z,2.00
2019-05-03T10:41:12.394Z,2.37
2019-05-03T10:43:57.863Z,1.43
2019-05-03T10:46:10.486Z,1.97
2019-05-03T10:48:29.497Z,1.83
2019-05-03T10:51:05.768Z,1.37
2019-05-03T10:53:29.524Z,1.70
2019-05-03T10:56:06.185Z,1.50
2019-05-03T11:01:16.530Z,1.57
2019-05-03T11:03:41.625Z,2.17
2019-05-03T11:06:05.493Z,1.47
2019-05-03T11:08:31.780Z,1.87
2019-05-03T11:11:07.281Z,1.90
2019-05-03T11:13:32.290Z,1.87
2019-05-03T11:15:46.171Z,1.83
2019-05-03T11:18:05.605Z,1.63
2019-05-03T11:20:28.146Z,1.83
2019-05-03T11:22:45.653Z,1.97
2019-05-03T11:24:58.677Z,1.53
2019-05-03T11:27:47.701Z,1.90
2019-05-03T11:30:12.945Z,1.73
2019-05-03T11:32:44.621Z,1.40
2019-05-03T11:35:37.178Z,1.70
2019-05-03T11:38:11.397Z,1.40
2019-05-03T11:40:39.266Z,2.23
2019-05-03T11:43:07.269Z,2.00
2019-05-03T11:45:15.915Z,1.40
2019-05-03T11:47:28.015Z,2.03
2019-05-03T11:49:42.646Z,1.80
2019-05-03T11:51:57.929Z,1.80
2019-05-03T11:54:25.105Z,1.40
2019-05-03T11:56:29.131Z,1.73
2019-05-03T11:58:34.609Z,1.80
2019-05-03T12:00:40.289Z,1.70
2019-05-03T12:03:35.529Z,1.40
2019-05-03T12:06:15.643Z,2.07
2019-05-03T12:08:21.306Z,1.73
2019-05-03T12:10:51.743Z,1.93
2019-05-03T12:13:09.208Z,1.57
2019-05-03T12:15:32.168Z,1.67
2019-05-03T12:17:54.373Z,1.37
2019-05-03T12:20:08.096Z,1.53
2019-05-03T12:22:35.933Z,1.73
2019-05-03T12:25:10.392Z,1.27
2019-05-03T12:27:41.822Z,2.43
2019-05-03T12:30:17.997Z,1.80
2019-05-03T12:32:27.804Z,1.87
2019-05-03T12:35:06.326Z,1.57
2019-05-03T12:37:27.734Z,2.00
2019-05-03T12:39:43.150Z,1.30
2019-05-03T12:42:19.204Z,1.33
2019-05-03T12:44:36.906Z,2.27
2019-05-03T12:46:55.702Z,1.70
2019-05-03T12:48:48.951Z,1.57
2019-05-03T12:50:53.522Z,1.50
2019-05-03T12:52:57.851Z,2.00
2019-05-03T12:55:01.839Z,1.33
2019-05-03T12:57:29.036Z,1.70
2019-05-03T13:00:00.947Z,1.50
2019-05-03T13:02:21.584Z,1.40
2019-05-03T13:04:34.432Z,1.97
2019-05-03T13:07:02.745Z,1.63
2019-05-03T13:09:00.731Z,1.77
2019-05-03T13:11:12.920Z,1.47
2019-05-03T13:13:30.815Z,2.00
2019-05-03T13:15:40.697Z,2.03
2019-05-03T13:17:55.335Z,2.20
2019-05-03T13:20:13.256Z,1.80
2019-05-03T13:22:25.326Z,1.70
2019-05-03T13:24:45.189Z,2.13
2019-05-03T13:26:53.701Z,2.20
2019-05-03T13:29:05.671Z,1.60
2019-05-03T13:31:16.173Z,2.70
2019-05-03T13:33:23.470Z,2.13
2019-05-03T13:35:29.187Z,2.27
2019-05-03T13:37:33.110Z,1.90
2019-05-03T13:39:36.913Z,1.37
2019-05-03T13:41:41.759Z,1.63
2019-05-03T13:43:45.597Z,1.50
2019-05-03T13:45:49.756Z,1.97
2019-05-03T13:47:55.235Z,1.83
2019-05-03T13:49:59.352Z,2.00
2019-05-03T13:52:05.099Z,2.13
2019-05-03T13:54:08.663Z,2.50
2019-05-03T13:56:12.729Z,1.93
2019-05-03T13:58:16.546Z,2.20
2019-05-03T14:00:20.481Z,1.60
2019-05-03T14:02:24.380Z,2.60
2019-05-03T14:04:28.162Z,1.77
2019-05-03T14:06:35.978Z,2.03
2019-05-03T14:08:37.751Z,2.40
2019-05-03T14:10:41.838Z,2.13
2019-05-03T14:12:45.912Z,1.60
2019-05-03T14:14:55.840Z,1.90
2019-05-03T14:17:01.325Z,1.80
2019-05-03T14:19:34.788Z,2.07
2019-05-03T14:22:21.226Z,2.00
2019-05-03T14:25:04.991Z,2.43
2019-05-03T14:27:54.935Z,1.67
2019-05-03T14:30:41.603Z,2.00
2019-05-03T14:33:22.340Z,1.80
2019-05-03T14:35:26.153Z,1.23
2019-05-03T14:37:37.941Z,1.67
2019-05-03T14:39:42.029Z,1.50
2019-05-03T14:41:46.901Z,1.63
2019-05-03T14:43:50.865Z,1.30
2019-05-03T14:45:55.182Z,2.03
2019-05-03T14:48:00.613Z,1.50
2019-05-03T14:50:21.283Z,1.43
2019-05-03T14:52:39.342Z,1.37
2019-05-03T14:54:45.121Z,1.67
2019-05-03T14:56:56.404Z,1.77
2019-05-03T14:59:18.199Z,4.40
2019-05-03T15:01:29.058Z,1.50
2019-05-03T15:03:35.500Z,2.37
2019-05-03T15:06:08.901Z,2.00
2019-05-03T15:08:30.643Z,1.80
2019-05-03T15:10:51.963Z,1.77
2019-05-03T15:13:15.876Z,1.47
2019-05-03T15:15:29.417Z,1.57
2019-05-03T15:20:10.404Z,1.30
2019-05-03T15:22:22.231Z,1.80
2019-05-03T15:24:35.693Z,1.80
2019-05-03T15:29:31.075Z,1.50
2019-05-03T15:31:39.444Z,1.60
2019-05-03T15:33:42.092Z,1.70
2019-05-03T15:35:57.735Z,1.50
2019-05-03T15:38:01.896Z,1.73
2019-05-03T15:40:21.326Z,1.63
2019-05-03T15:42:41.623Z,1.90
2019-05-03T15:45:45.078Z,1.23
2019-05-03T15:48:45.810Z,1.50
2019-05-03T16:06:12.682Z,1.83
2019-05-03T16:08:16.641Z,1.47
2019-05-03T16:10:20.758Z,2.07
2019-05-03T16:12:24.083Z,2.43
2019-05-03T16:14:27.960Z,1.30
2019-05-03T16:16:31.988Z,1.67
2019-05-03T16:18:35.827Z,2.00
2019-05-03T16:20:39.948Z,1.30
2019-05-03T16:22:44.997Z,1.20
2019-05-03T16:24:49.239Z,2.00
2019-05-03T16:27:30.246Z,1.63
2019-05-03T16:29:34.492Z,2.40
2019-05-03T16:31:38.327Z,1.70
2019-05-03T16:33:42.195Z,2.00
2019-05-03T16:35:46.042Z,1.60
2019-05-03T16:37:50.163Z,2.30
2019-05-03T16:39:55.027Z,1.73
2019-05-03T16:41:59.784Z,1.43
2019-05-03T16:44:03.730Z,2.23
2019-05-03T16:46:10.682Z,1.60
2019-05-03T16:48:15.458Z,1.80
2019-05-03T16:50:20.692Z,1.63
2019-05-03T16:52:25.656Z,2.87
2019-05-03T16:54:30.135Z,2.23
2019-05-03T16:56:35.290Z,1.90
2019-05-03T16:58:39.211Z,2.10
2019-05-03T17:00:44.693Z,1.90
2019-05-03T17:02:48.612Z,2.00
2019-05-03T17:05:01.560Z,1.90
2019-05-03T17:07:24.691Z,2.37
2019-05-03T17:09:47.623Z,1.67
2019-05-03T17:12:09.640Z,1.90
2019-05-03T17:14:15.433Z,1.97
2019-05-03T17:16:18.979Z,2.47
2019-05-03T17:18:24.649Z,2.37
2019-05-03T17:20:28.569Z,1.93
2019-05-03T17:22:34.347Z,2.37
2019-05-03T17:24:37.920Z,2.13
2019-05-03T17:26:41.702Z,1.87
2019-05-03T17:28:45.556Z,3.80
2019-05-03T17:30:49.451Z,3.27
2019-05-03T17:32:55.011Z,3.00
2019-05-03T17:34:59.893Z,2.00
2019-05-03T17:37:05.018Z,2.90
2019-05-03T17:39:12.355Z,3.10
2019-05-03T17:41:31.047Z,2.33
2019-05-03T17:43:42.173Z,1.97
2019-05-03T17:45:48.792Z,2.00
2019-05-03T17:47:52.101Z,2.97
2019-05-03T17:49:55.900Z,1.70
2019-05-03T17:52:21.833Z,2.10
2019-05-03T17:54:54.276Z,2.20
2019-05-03T17:57:07.995Z,2.50
2019-05-03T17:59:24.461Z,2.03
2019-05-03T18:01:55.277Z,2.57
2019-05-03T18:04:06.578Z,1.83
2019-05-03T18:06:15.334Z,2.00
2019-05-03T18:08:40.563Z,2.10
2019-05-03T18:10:50.094Z,3.70
2019-05-03T18:12:54.645Z,2.50
2019-05-03T18:14:58.596Z,1.87
2019-05-03T18:17:02.549Z,2.43
2019-05-03T18:19:06.511Z,1.60
2019-05-03T18:21:15.041Z,3.33
2019-05-03T18:23:18.619Z,2.53
2019-05-03T18:25:22.453Z,1.77
2019-05-03T18:27:26.343Z,1.70
2019-05-03T18:29:30.130Z,1.73
2019-05-03T18:31:33.980Z,2.10
2019-05-03T18:33:40.600Z,1.80
2019-05-03T18:35:44.402Z,1.90
2019-05-03T18:37:59.526Z,1.70
2019-05-03T19:10:35.502Z,1.80
2019-05-03T19:12:46.661Z,1.83
2019-05-03T19:14:52.193Z,2.37
2019-05-03T19:17:12.871Z,2.57
2019-05-03T19:19:24.659Z,2.27
2019-05-03T19:21:29.821Z,2.20
2019-05-03T19:23:35.479Z,2.93
2019-05-03T19:25:46.953Z,2.33
2019-05-03T19:27:47.384Z,2.13
2019-05-03T19:29:58.389Z,2.83
2019-05-03T19:32:09.456Z,2.40
2019-05-03T19:34:15.318Z,3.20
2019-05-03T19:36:19.702Z,2.20
2019-05-03T19:38:28.845Z,2.97
2019-05-03T19:40:40.013Z,3.23
2019-05-03T19:42:44.733Z,2.80
2019-05-03T19:44:50.619Z,2.63
2019-05-03T19:46:58.036Z,2.30
2019-05-03T19:49:09.347Z,3.33
2019-05-03T19:51:18.997Z,2.93
2019-05-03T19:53:51.007Z,3.23
2019-05-03T19:55:58.169Z,3.00
2019-05-03T19:58:05.547Z,2.93
2019-05-03T20:00:11.269Z,2.90
2019-05-03T20:02:34.992Z,2.87
2019-05-03T20:05:16.238Z,3.10
2019-05-03T20:07:40.599Z,4.60
2019-05-03T20:09:48.872Z,4.40
2019-05-03T20:11:55.208Z,5.73
2019-05-03T20:14:01.757Z,3.47
2019-05-03T20:16:05.920Z,3.30
2019-05-03T20:18:10.407Z,4.17
2019-05-03T20:20:15.450Z,3.30
2019-05-03T20:22:19.697Z,3.60
2019-05-03T20:24:25.317Z,3.23
2019-05-03T20:26:34.623Z,3.50
2019-05-03T20:28:38.248Z,3.50
2019-05-03T20:30:45.393Z,3.47
2019-05-03T20:32:50.670Z,4.20
2019-05-03T20:35:10.891Z,4.50
2019-05-03T20:37:06.134Z,3.43
2019-05-03T20:39:10.438Z,3.70
2019-05-03T20:41:17.440Z,3.83
2019-05-03T20:43:49.671Z,4.27
2019-05-03T20:46:15.107Z,4.43
2019-05-03T20:48:25.990Z,3.00
2019-05-03T20:50:31.109Z,3.37
2019-05-03T20:52:38.751Z,3.50
2019-05-03T20:54:44.785Z,3.90
2019-05-03T20:56:52.029Z,3.50
2019-05-03T20:59:05.336Z,4.10
2019-05-03T21:01:11.287Z,3.90
2019-05-03T21:03:18.631Z,5.27
2019-05-03T21:05:29.633Z,3.87
2019-05-03T21:07:45.485Z,3.70
2019-05-03T21:10:02.745Z,3.80
2019-05-03T21:12:15.080Z,3.77
2019-05-03T21:14:26.565Z,3.53
2019-05-03T21:17:07.057Z,2.10
2019-05-03T21:19:36.094Z,2.80
2019-05-03T21:21:44.514Z,2.50
2019-05-03T21:23:52.520Z,3.40
2019-05-03T21:26:12.879Z,3.23
2019-05-03T21:28:12.164Z,2.70
2019-05-03T21:30:16.016Z,2.70
2019-05-03T21:32:19.983Z,2.87
2019-05-03T21:34:25.159Z,2.93
2019-05-03T21:36:29.089Z,2.57
2019-05-03T21:38:35.170Z,1.93
2019-05-03T21:40:38.439Z,2.40
2019-05-03T21:42:42.256Z,2.90
2019-05-03T21:44:46.027Z,2.43
2019-05-03T21:46:50.338Z,3.07
2019-05-03T21:48:58.291Z,2.30
2019-05-03T21:51:05.093Z,2.47
2019-05-03T21:53:29.303Z,2.87
2019-05-03T21:55:44.697Z,2.73
2019-05-03T21:57:57.631Z,2.90
2019-05-03T22:00:36.383Z,2.60
2019-05-03T22:02:58.129Z,2.53
2019-05-03T22:05:09.020Z,2.80
2019-05-03T22:07:25.111Z,2.80
2019-05-03T22:09:32.430Z,3.40
2019-05-03T22:11:39.793Z,3.07
2019-05-03T22:13:48.106Z,3.13
2019-05-03T22:15:59.721Z,2.27
2019-05-03T22:18:25.925Z,3.97
2019-05-03T22:20:41.271Z,2.30
2019-05-03T22:22:55.307Z,3.80
2019-05-03T22:25:00.101Z,3.43
2019-05-03T22:27:15.292Z,3.83
2019-05-03T22:29:25.469Z,4.23
2019-05-03T22:31:42.175Z,3.60
2019-05-03T22:33:52.649Z,3.40
2019-05-03T22:36:08.627Z,5.27
2019-05-03T22:38:18.129Z,4.50
2019-05-03T22:40:29.488Z,4.00
2019-05-03T22:42:47.652Z,3.97
2019-05-03T22:45:04.695Z,4.00
2019-05-03T22:47:14.725Z,3.93
2019-05-03T22:49:20.807Z,4.07
2019-05-03T22:51:32.149Z,3.20
2019-05-03T22:54:01.569Z,3.80
2019-05-03T22:56:16.005Z,3.70
2019-05-03T22:58:24.841Z,4.20
2019-05-03T23:00:38.572Z,3.70
2019-05-03T23:02:55.292Z,5.20
2019-05-03T23:05:10.695Z,3.63
2019-05-03T23:07:19.849Z,3.47
2019-05-03T23:09:30.414Z,3.60
2019-05-03T23:11:40.275Z,3.40
2019-05-03T23:14:01.693Z,4.40
2019-05-03T23:16:17.599Z,3.77
2019-05-03T23:18:24.710Z,4.03
2019-05-03T23:20:47.263Z,3.80
2019-05-03T23:23:00.426Z,3.83
2019-05-03T23:25:17.109Z,3.50
2019-05-03T23:27:32.619Z,4.00
2019-05-03T23:29:45.440Z,4.23
2019-05-03T23:31:50.167Z,3.90
2019-05-03T23:34:11.049Z,4.27
2019-05-03T23:36:36.468Z,3.27
2019-05-03T23:38:45.210Z,5.13
2019-05-03T23:40:55.344Z,4.30
2019-05-03T23:43:01.280Z,3.90
2019-05-03T23:45:15.022Z,3.77
2019-05-03T23:47:41.234Z,5.10
2019-05-03T23:49:55.382Z,4.00
2019-05-03T23:52:04.495Z,3.40
2019-05-03T23:54:18.651Z,3.93
2019-05-03T23:56:26.226Z,4.70
2019-05-03T23:58:49.104Z,3.20
